createdAt,value
2022-10-30T00:00:17.585Z,100.00
2022-10-30T00:02:47.758Z,100.00
2022-10-30T00:05:16.950Z,100.00
2022-10-30T00:07:45.932Z,100.00
2022-10-30T00:10:14.141Z,100.00
2022-10-30T00:12:42.459Z,100.00
2022-10-30T00:15:11.783Z,100.00
2022-10-30T00:17:39.509Z,100.00
2022-10-30T00:20:08.096Z,100.00
2022-10-30T00:22:36.618Z,100.00
2022-10-30T00:25:04.964Z,100.00
2022-10-30T00:27:32.400Z,100.00
2022-10-30T00:30:00.963Z,100.00
2022-10-30T00:32:28.743Z,100.00
2022-10-30T00:37:41.599Z,100.00
2022-10-30T00:40:16.324Z,100.00
2022-10-30T00:45:28.720Z,100.00
2022-10-30T00:48:02.013Z,100.00
2022-10-30T00:50:31.875Z,100.00
2022-10-30T00:53:04.939Z,100.00
2022-10-30T00:55:59.416Z,100.00
2022-10-30T00:58:40.645Z,100.00
2022-10-30T01:01:14.025Z,100.00
2022-10-30T01:03:42.261Z,100.00
2022-10-30T01:06:17.604Z,100.00
2022-10-30T01:08:46.571Z,100.00
2022-10-30T01:11:14.059Z,100.00
2022-10-30T01:13:45.419Z,100.00
2022-10-30T01:16:40.070Z,100.00
2022-10-30T01:31:52.873Z,100.00
2022-10-30T01:37:30.684Z,100.00
2022-10-30T01:40:13.710Z,100.00
2022-10-30T01:51:39.834Z,100.00
2022-10-30T01:54:13.198Z,100.00
2022-10-30T01:57:25.801Z,100.00
2022-10-30T02:00:09.567Z,100.00
2022-10-30T02:02:37.682Z,100.00
2022-10-30T02:05:08.931Z,100.00
2022-10-30T02:07:37.422Z,100.00
2022-10-30T02:10:07.013Z,100.00
2022-10-30T02:18:05.934Z,100.00
2022-10-30T02:20:34.859Z,100.00
2022-10-30T02:23:03.216Z,100.00
2022-10-30T02:25:31.136Z,100.00
2022-10-30T02:27:59.277Z,100.00
2022-10-30T02:30:27.345Z,100.00
2022-10-30T02:32:55.069Z,100.00
2022-10-30T02:35:22.872Z,100.00
2022-10-30T02:37:50.422Z,100.00
2022-10-30T02:40:18.293Z,100.00
2022-10-30T02:42:52.087Z,100.00
2022-10-30T02:45:19.991Z,100.00
2022-10-30T02:47:47.942Z,100.00
2022-10-30T02:53:00.925Z,100.00
2022-10-30T02:55:29.293Z,100.00
2022-10-30T02:57:56.869Z,100.00
2022-10-30T03:03:09.146Z,100.00
2022-10-30T03:05:36.702Z,100.00
2022-10-30T03:08:04.624Z,100.00
2022-10-30T03:13:17.057Z,100.00
2022-10-30T03:15:45.995Z,100.00
2022-10-30T03:21:03.942Z,100.00
2022-10-30T03:26:19.988Z,100.00
2022-10-30T03:28:49.435Z,100.00
2022-10-30T03:31:18.986Z,100.00
2022-10-30T03:33:47.329Z,100.00
2022-10-30T03:36:15.721Z,100.00
2022-10-30T03:38:43.839Z,100.00
2022-10-30T03:41:11.390Z,100.00
2022-10-30T03:43:39.617Z,100.00
2022-10-30T03:46:07.591Z,100.00
2022-10-30T03:48:36.113Z,100.00
2022-10-30T03:51:04.121Z,100.00
2022-10-30T03:53:31.906Z,100.00
2022-10-30T03:56:02.098Z,100.00
2022-10-30T04:04:00.582Z,100.00
2022-10-30T04:06:28.391Z,100.00
2022-10-30T04:08:56.005Z,100.00
2022-10-30T04:11:24.167Z,100.00
2022-10-30T04:13:53.026Z,100.00
2022-10-30T04:16:21.153Z,100.00
2022-10-30T04:18:48.669Z,100.00
2022-10-30T04:21:17.353Z,100.00
2022-10-30T04:23:44.827Z,100.00
2022-10-30T04:28:58.249Z,100.00
2022-10-30T04:31:26.164Z,100.00
2022-10-30T04:36:38.809Z,100.00
2022-10-30T04:41:51.435Z,100.00
2022-10-30T04:44:18.900Z,100.00
2022-10-30T04:46:46.338Z,100.00
2022-10-30T04:49:13.803Z,100.00
2022-10-30T04:51:42.708Z,100.00
2022-10-30T04:59:40.327Z,100.00
2022-10-30T05:02:08.211Z,100.00
2022-10-30T05:04:36.290Z,100.00
2022-10-30T05:07:03.928Z,100.00
2022-10-30T05:09:31.490Z,100.00
2022-10-30T05:12:00.270Z,100.00
2022-10-30T05:14:32.950Z,100.00
2022-10-30T05:17:01.039Z,100.00
2022-10-30T05:19:28.619Z,100.00
2022-10-30T05:21:56.242Z,100.00
2022-10-30T05:24:24.459Z,100.00
2022-10-30T05:26:52.426Z,100.00
2022-10-30T05:29:22.123Z,100.00
2022-10-30T05:31:50.278Z,100.00
2022-10-30T05:34:18.044Z,100.00
2022-10-30T05:36:45.865Z,100.00
2022-10-30T05:39:13.325Z,100.00
2022-10-30T05:41:40.915Z,100.00
2022-10-30T05:44:09.701Z,100.00
2022-10-30T05:46:38.143Z,100.00
2022-10-30T05:49:06.296Z,100.00
2022-10-30T05:54:19.056Z,100.00
2022-10-30T05:56:47.290Z,100.00
2022-10-30T05:59:17.713Z,100.00
2022-10-30T06:04:15.025Z,100.00
2022-10-30T06:06:42.919Z,100.00
2022-10-30T06:09:14.593Z,100.00
2022-10-30T06:11:42.748Z,100.00
2022-10-30T06:16:56.680Z,100.00
2022-10-30T06:19:24.492Z,100.00
2022-10-30T06:21:52.342Z,100.00
2022-10-30T06:24:21.272Z,100.00
2022-10-30T06:26:49.791Z,100.00
2022-10-30T06:34:49.559Z,100.00
2022-10-30T06:37:17.338Z,100.00
2022-10-30T06:39:45.397Z,100.00
2022-10-30T06:42:13.407Z,100.00
2022-10-30T06:44:43.376Z,100.00
2022-10-30T06:47:11.712Z,100.00
2022-10-30T06:49:39.299Z,100.00
2022-10-30T06:52:06.974Z,100.00
2022-10-30T06:54:35.401Z,100.00
2022-10-30T06:57:03.007Z,100.00
2022-10-30T06:59:31.169Z,100.00
2022-10-30T07:04:48.777Z,100.00
2022-10-30T07:07:17.237Z,100.00
2022-10-30T07:09:48.306Z,100.00
2022-10-30T07:12:17.136Z,100.00
2022-10-30T07:17:31.259Z,100.00
2022-10-30T07:20:00.136Z,100.00
2022-10-30T07:25:16.129Z,100.00
2022-10-30T07:27:46.165Z,100.00
2022-10-30T07:30:18.172Z,100.00
2022-10-30T07:32:58.414Z,100.00
2022-10-30T07:35:26.882Z,100.00
2022-10-30T07:37:55.214Z,100.00
2022-10-30T07:40:23.559Z,100.00
2022-10-30T07:45:47.162Z,100.00
2022-10-30T07:48:15.677Z,100.00
2022-10-30T07:50:44.351Z,100.00
2022-10-30T07:53:12.387Z,100.00
2022-10-30T07:55:40.646Z,100.00
2022-10-30T07:58:08.494Z,100.00
2022-10-30T08:00:36.225Z,100.00
2022-10-30T08:03:04.014Z,100.00
2022-10-30T08:08:17.602Z,100.00
2022-10-30T08:10:46.316Z,100.00
2022-10-30T08:13:15.280Z,100.00
2022-10-30T08:15:44.853Z,100.00
2022-10-30T08:18:13.642Z,100.00
2022-10-30T08:23:19.942Z,100.00
2022-10-30T08:28:35.584Z,100.00
2022-10-30T08:36:36.563Z,100.00
2022-10-30T08:39:08.450Z,100.00
2022-10-30T08:41:38.467Z,100.00
2022-10-30T08:44:06.952Z,100.00
2022-10-30T08:46:34.742Z,100.00
2022-10-30T08:49:03.493Z,100.00
2022-10-30T08:57:05.651Z,100.00
2022-10-30T08:59:33.706Z,100.00
2022-10-30T09:02:02.358Z,100.00
2022-10-30T09:04:31.638Z,100.00
2022-10-30T09:07:02.717Z,100.00
2022-10-30T09:09:31.070Z,100.00
2022-10-30T09:11:59.231Z,100.00
2022-10-30T09:14:27.201Z,100.00
2022-10-30T09:19:42.532Z,100.00
2022-10-30T09:24:56.702Z,100.00
2022-10-30T09:33:03.013Z,100.00
2022-10-30T09:35:33.729Z,100.00
2022-10-30T09:38:01.926Z,100.00
2022-10-30T09:40:50.455Z,100.00
2022-10-30T09:43:50.875Z,100.00
2022-10-30T09:46:47.866Z,100.00
2022-10-30T09:49:34.752Z,100.00
2022-10-30T09:52:35.750Z,100.00
2022-10-30T09:58:37.121Z,100.00
2022-10-30T10:01:17.787Z,100.00
2022-10-30T10:04:20.913Z,100.00
2022-10-30T10:07:02.477Z,100.00
2022-10-30T10:09:35.081Z,100.00
2022-10-30T10:12:14.398Z,100.00
2022-10-30T10:14:46.860Z,100.00
2022-10-30T10:17:24.832Z,100.00
2022-10-30T10:19:59.875Z,100.00
2022-10-30T10:22:41.355Z,100.00
2022-10-30T10:25:16.195Z,100.00
2022-10-30T10:28:21.674Z,100.00
2022-10-30T10:31:28.204Z,100.00
2022-10-30T10:37:48.933Z,100.00
2022-10-30T10:40:31.909Z,100.00
2022-10-30T10:43:07.132Z,100.00
2022-10-30T10:46:40.471Z,100.00
2022-10-30T10:52:05.607Z,100.00
2022-10-30T10:54:46.912Z,100.00
2022-10-30T10:57:27.795Z,100.00
2022-10-30T11:00:04.442Z,100.00
2022-10-30T11:02:44.907Z,100.00
2022-10-30T11:05:21.207Z,100.00
2022-10-30T11:07:52.306Z,100.00
2022-10-30T11:10:21.286Z,100.00
2022-10-30T11:12:50.706Z,97.16
2022-10-30T11:15:22.927Z,98.30
2022-10-30T11:18:10.881Z,99.23
2022-10-30T11:20:38.781Z,97.66
2022-10-30T11:23:31.208Z,97.90
2022-10-30T11:29:13.129Z,98.94
2022-10-30T11:34:39.198Z,97.36
2022-10-30T11:37:30.531Z,95.82
2022-10-30T11:40:26.814Z,97.06
2022-10-30T11:45:47.651Z,97.21
2022-10-30T11:48:24.188Z,96.78
2022-10-30T11:50:59.873Z,96.75
2022-10-30T11:53:35.024Z,96.55
2022-10-30T11:56:12.937Z,97.12
2022-10-30T11:58:45.643Z,98.15
2022-10-30T12:01:24.294Z,96.71
2022-10-30T12:03:54.766Z,97.77
2022-10-30T12:06:30.291Z,98.56
2022-10-30T12:09:23.552Z,98.17
2022-10-30T12:11:52.321Z,98.01
2022-10-30T12:14:27.246Z,98.29
2022-10-30T12:22:38.991Z,99.46
2022-10-30T12:25:24.007Z,99.68
2022-10-30T12:28:01.176Z,99.89
2022-10-30T12:30:34.671Z,99.64
2022-10-30T12:33:09.318Z,99.11
2022-10-30T12:35:49.415Z,99.38
2022-10-30T12:38:59.193Z,98.82
2022-10-30T12:41:33.717Z,96.25
2022-10-30T12:44:12.345Z,95.06
2022-10-30T12:46:49.224Z,95.01
2022-10-30T12:52:23.115Z,89.87
2022-10-30T12:54:56.688Z,88.23
2022-10-30T12:57:33.849Z,85.05
2022-10-30T13:00:16.200Z,83.50
2022-10-30T13:06:02.911Z,83.61
2022-10-30T13:09:09.547Z,87.71
2022-10-30T13:11:56.483Z,88.78
2022-10-30T13:14:40.749Z,87.69
2022-10-30T13:17:14.554Z,89.31
2022-10-30T13:19:48.422Z,90.10
2022-10-30T13:22:30.132Z,90.49
2022-10-30T13:28:24.296Z,90.86
2022-10-30T13:31:05.110Z,91.95
2022-10-30T13:33:59.389Z,92.56
2022-10-30T13:39:49.585Z,93.83
2022-10-30T13:45:38.114Z,96.16
2022-10-30T13:48:28.259Z,96.35
2022-10-30T13:51:22.033Z,97.20
2022-10-30T13:54:20.118Z,97.54
2022-10-30T13:56:50.506Z,97.48
2022-10-30T14:02:50.365Z,98.90
2022-10-30T14:05:32.017Z,100.00
2022-10-30T14:08:26.231Z,100.00
2022-10-30T14:11:06.621Z,100.00
2022-10-30T14:16:36.215Z,99.64
2022-10-30T14:19:15.575Z,99.76
2022-10-30T14:21:56.752Z,100.00
2022-10-30T14:24:37.721Z,100.00
2022-10-30T14:30:20.749Z,98.37
2022-10-30T14:32:52.947Z,99.34
2022-10-30T14:36:07.943Z,100.00
2022-10-30T14:38:38.752Z,99.52
2022-10-30T14:41:26.461Z,100.00
2022-10-30T14:44:11.897Z,100.00
2022-10-30T14:47:06.120Z,100.00
2022-10-30T14:52:38.939Z,100.00
2022-10-30T14:55:28.899Z,100.00
2022-10-30T14:58:02.792Z,100.00
2022-10-30T15:00:36.438Z,100.00
2022-10-30T15:03:07.586Z,100.00
2022-10-30T15:05:56.564Z,100.00
2022-10-30T15:11:47.875Z,100.00
2022-10-30T15:14:52.698Z,100.00
2022-10-30T15:17:29.127Z,100.00
2022-10-30T15:20:02.853Z,100.00
2022-10-30T15:25:23.270Z,100.00
2022-10-30T15:27:59.101Z,100.00
2022-10-30T15:33:27.195Z,100.00
2022-10-30T15:36:00.365Z,100.00
2022-10-30T15:38:29.725Z,100.00
2022-10-30T15:41:09.863Z,100.00
2022-10-30T15:43:47.465Z,100.00
2022-10-30T15:46:26.089Z,100.00
2022-10-30T15:48:54.360Z,100.00
2022-10-30T15:51:28.307Z,100.00
2022-10-30T15:54:15.872Z,100.00
2022-10-30T15:57:21.493Z,100.00
2022-10-30T15:59:38.842Z,100.00
2022-10-30T16:02:26.127Z,100.00
2022-10-30T16:04:54.852Z,100.00
2022-10-30T16:07:28.155Z,100.00
2022-10-30T16:12:49.079Z,100.00
2022-10-30T16:15:30.642Z,100.00
2022-10-30T16:18:30.753Z,100.00
2022-10-30T16:21:10.775Z,100.00
2022-10-30T16:26:40.070Z,100.00
2022-10-30T16:29:25.722Z,100.00
2022-10-30T16:31:54.851Z,100.00
2022-10-30T16:34:37.974Z,100.00
2022-10-30T16:40:05.816Z,100.00
2022-10-30T16:42:35.865Z,100.00
2022-10-30T16:45:35.291Z,100.00
2022-10-30T16:50:46.024Z,100.00
2022-10-30T16:53:26.174Z,100.00
2022-10-30T16:59:02.575Z,100.00
2022-10-30T17:01:34.522Z,100.00
2022-10-30T17:04:06.986Z,100.00
2022-10-30T17:09:34.163Z,100.00
2022-10-30T17:12:18.920Z,100.00
2022-10-30T17:18:17.434Z,100.00
2022-10-30T17:20:45.663Z,100.00
2022-10-30T17:23:32.464Z,100.00
2022-10-30T17:28:58.313Z,100.00
2022-10-30T17:31:39.493Z,100.00
2022-10-30T17:45:51.071Z,100.00
2022-10-30T17:51:29.968Z,100.00
2022-10-30T17:56:46.496Z,100.00
2022-10-30T17:59:26.520Z,100.00
2022-10-30T18:01:56.740Z,100.00
2022-10-30T18:07:15.694Z,100.00
2022-10-30T18:09:44.897Z,100.00
2022-10-30T18:12:15.939Z,100.00
2022-10-30T18:14:46.249Z,100.00
2022-10-30T18:20:09.908Z,100.00
2022-10-30T18:25:34.021Z,100.00
2022-10-30T18:28:03.866Z,100.00
2022-10-30T18:33:15.365Z,100.00
2022-10-30T18:35:43.413Z,100.00
2022-10-30T18:38:12.752Z,100.00
2022-10-30T18:43:32.739Z,100.00
2022-10-30T18:46:02.077Z,100.00
2022-10-30T18:51:24.418Z,100.00
2022-10-30T18:53:52.809Z,100.00
2022-10-30T18:56:24.821Z,100.00
2022-10-30T18:59:00.714Z,100.00
2022-10-30T19:04:22.626Z,100.00
2022-10-30T19:06:53.266Z,100.00
2022-10-30T19:09:21.312Z,100.00
2022-10-30T19:11:49.446Z,100.00
2022-10-30T19:14:17.759Z,100.00
2022-10-30T19:16:47.090Z,100.00
2022-10-30T19:19:16.571Z,100.00
2022-10-30T19:21:45.902Z,100.00
2022-10-30T19:24:18.018Z,100.00
2022-10-30T19:32:21.369Z,100.00
2022-10-30T19:40:27.440Z,100.00
2022-10-30T19:42:55.761Z,100.00
2022-10-30T19:45:30.210Z,100.00
2022-10-30T19:48:01.651Z,100.00
2022-10-30T19:50:38.961Z,100.00
2022-10-30T19:53:08.723Z,100.00
2022-10-30T19:55:39.843Z,100.00
2022-10-30T19:58:14.290Z,100.00
2022-10-30T20:03:30.274Z,100.00
2022-10-30T20:08:44.657Z,100.00
2022-10-30T20:11:13.279Z,100.00
2022-10-30T20:13:41.101Z,100.00
2022-10-30T20:21:38.659Z,100.00
2022-10-30T20:24:07.629Z,100.00
2022-10-30T20:26:38.749Z,100.00
2022-10-30T20:29:08.802Z,100.00
2022-10-30T20:34:21.482Z,100.00
2022-10-30T20:39:36.166Z,100.00
2022-10-30T20:44:50.936Z,100.00
2022-10-30T20:47:19.479Z,100.00
2022-10-30T20:49:52.805Z,100.00
2022-10-30T20:52:22.153Z,100.00
2022-10-30T20:54:50.388Z,100.00
2022-10-30T20:57:18.650Z,100.00
2022-10-30T20:59:47.286Z,100.00
2022-10-30T21:02:15.883Z,100.00
2022-10-30T21:04:44.152Z,100.00
2022-10-30T21:07:11.993Z,100.00
2022-10-30T21:12:29.602Z,100.00
2022-10-30T21:17:46.294Z,100.00
2022-10-30T21:20:17.204Z,100.00
2022-10-30T21:28:26.631Z,100.00
2022-10-30T21:30:56.807Z,100.00
2022-10-30T21:33:27.279Z,100.00
2022-10-30T21:35:56.938Z,100.00
2022-10-30T21:41:12.874Z,100.00
2022-10-30T21:43:40.858Z,100.00
2022-10-30T21:46:12.148Z,100.00
2022-10-30T21:48:40.893Z,100.00
2022-10-30T21:51:18.468Z,100.00
2022-10-30T21:53:47.686Z,100.00
2022-10-30T21:59:07.373Z,100.00
2022-10-30T22:01:39.785Z,100.00
2022-10-30T22:04:09.830Z,100.00
2022-10-30T22:06:42.850Z,100.00
2022-10-30T22:09:11.215Z,100.00
2022-10-30T22:11:42.861Z,100.00
2022-10-30T22:14:12.006Z,98.96
2022-10-30T22:16:40.792Z,99.25
2022-10-30T22:19:11.656Z,98.82
2022-10-30T22:21:39.672Z,98.36
2022-10-30T22:26:53.276Z,99.14
2022-10-30T22:29:24.420Z,98.89
2022-10-30T22:31:57.338Z,99.44
2022-10-30T22:34:26.751Z,99.69
2022-10-30T22:36:55.948Z,100.00
2022-10-30T22:39:24.417Z,100.00
2022-10-30T23:00:52.852Z,100.00
2022-10-30T23:03:20.557Z,100.00
2022-10-30T23:05:59.631Z,100.00
2022-10-30T23:08:28.271Z,100.00
2022-10-30T23:10:59.071Z,100.00
2022-10-30T23:13:32.687Z,100.00
2022-10-30T23:16:09.932Z,100.00
2022-10-30T23:18:38.828Z,100.00
2022-10-30T23:21:14.692Z,100.00
2022-10-30T23:23:44.115Z,100.00
2022-10-30T23:26:14.962Z,100.00
2022-10-30T23:28:43.242Z,100.00
2022-10-30T23:31:19.916Z,100.00
2022-10-30T23:33:49.701Z,100.00
2022-10-30T23:36:18.723Z,100.00
2022-10-30T23:39:04.309Z,100.00
2022-10-30T23:41:34.946Z,100.00
2022-10-30T23:44:08.802Z,100.00
2022-10-30T23:46:37.703Z,100.00
2022-10-30T23:49:06.251Z,100.00
2022-10-30T23:51:34.391Z,100.00
2022-10-30T23:54:04.184Z,100.00
2022-10-30T23:56:32.779Z,100.00
2022-10-30T23:59:01.234Z,100.00
